Time;durP1;ratioP1;P1;durP2;ratioP2;P2;SDS_P1;SDS_P2;PMS_P1;PMS_P2;Temp;Humidity;BMP_temperature;BMP_pressure;BME280_temperature;BME280_humidity;BME280_pressure;Samples;Min_cycle;Max_cycle;Signal;HPM_P1;HPM_P2
2022/01/07 07:20:15;;;;;;;101.43;37.88;;;0.00;99.90;;;;;;5119017;27;20208;-95
2022/01/07 07:22:40;;;;;;;93.43;35.33;;;0.00;99.90;;;;;;5101320;28;20008;-95
2022/01/07 11:19:35;;;;;;;33.13;12.02;;;5.40;94.10;;;;;;5078538;27;20469;-96
2022/01/07 11:22:07;;;;;;;23.58;9.18;;;6.80;95.00;;;;;;5080144;28;20471;-96
2022/01/07 11:25:04;;;;;;;20.10;8.30;;;7.00;93.70;;;;;;5077366;28;20029;-96
2022/01/07 11:31:21;;;;;;;14.80;6.82;;;7.30;91.40;;;;;;5067004;28;20148;-96
2022/01/07 11:33:47;;;;;;;18.48;7.05;;;7.40;92.60;;;;;;5079542;28;20033;-96
2022/01/07 11:37:05;;;;;;;;;;;;;;;;;;;;;
2022/01/07 11:39:43;;;;;;;23.63;9.43;;;7.80;92.70;;;;;;5085906;28;20096;-96
2022/01/07 11:42:10;;;;;;;26.48;11.75;;;8.00;90.80;;;;;;5073416;28;20021;-96
2022/01/07 11:44:37;;;;;;;26.30;12.45;;;8.00;91.60;;;;;;5082027;28;20025;-96
2022/01/07 11:47:24;;;;;;;17.40;7.05;;;8.00;91.40;;;;;;5077859;28;20028;-96
2022/01/07 11:50:06;;;;;;;18.92;7.85;;;8.00;92.30;;;;;;5084394;28;20044;-96
2022/01/07 11:52:42;;;;;;;16.20;6.90;;;8.20;90.50;;;;;;5088941;28;20089;-96
2022/01/07 11:55:50;;;;;;;14.95;6.22;;;8.40;93.30;;;;;;5090275;28;20037;-96
2022/01/07 11:58:55;;;;;;;12.30;6.18;;;8.60;91.00;;;;;;5086551;28;20040;-96
2022/01/07 12:01:35;;;;;;;13.10;5.35;;;8.60;89.90;;;;;;5411171;22;20091;-96
2022/01/07 12:04:23;;;;;;;11.27;5.45;;;8.40;91.10;;;;;;5125779;28;20038;-96
2022/01/07 12:06:50;;;;;;;11.73;5.18;;;8.50;89.60;;;;;;5107392;28;20039;-96
2022/01/07 12:09:22;;;;;;;11.25;4.05;;;8.50;88.80;;;;;;5107983;28;20032;-96
2022/01/07 12:11:55;;;;;;;9.55;4.22;;;8.60;88.30;;;;;;5126718;28;20038;-96
2022/01/07 12:14:49;;;;;;;11.23;3.97;;;8.80;88.10;;;;;;5126071;28;20028;-96
2022/01/07 12:22:26;;;;;;;6.63;3.90;;;8.60;84.90;;;;;;5147472;23;20057;-95
2022/01/07 12:24:59;;;;;;;9.43;3.90;;;8.60;85.20;;;;;;5043132;28;20029;-96
2022/01/07 12:27:25;;;;;;;23.10;8.38;;;8.90;90.20;;;;;;5041420;28;20021;-95
2022/01/07 12:29:57;;;;;;;26.90;9.23;;;9.60;87.00;;;;;;5041203;28;20021;-96
2022/01/07 12:32:41;;;;;;;28.48;10.77;;;10.10;83.40;;;;;;5070216;23;20054;-96
2022/01/07 12:43:04;;;;;;;13.10;4.75;;;10.10;79.70;;;;;;5507455;23;20061;-96
2022/01/07 12:45:33;;;;;;;12.52;4.45;;;9.80;79.50;;;;;;4983675;28;20030;-95
2022/01/07 12:48:14;;;;;;;8.18;3.88;;;9.80;76.70;;;;;;4972056;28;20031;-96
2022/01/07 12:50:47;;;;;;;10.02;4.68;;;9.70;77.00;;;;;;4983537;28;20023;-96
2022/01/07 12:53:14;;;;;;;9.70;4.25;;;9.50;77.00;;;;;;5261875;23;20052;-95
2022/01/07 12:55:40;;;;;;;10.55;4.53;;;9.60;77.80;;;;;;5040214;28;20061;-93
2022/01/07 12:58:09;;;;;;;16.77;6.75;;;9.70;79.60;;;;;;5055238;28;20025;-96
2022/01/07 13:00:36;;;;;;;12.75;5.13;;;9.90;76.20;;;;;;5054003;28;20077;-96
2022/01/07 13:03:06;;;;;;;9.07;4.50;;;9.70;75.50;;;;;;5041656;28;20057;-96
2022/01/07 13:26:19;;;;;;;19.67;9.55;;;10.50;77.80;;;;;;6103135;23;20994;-96
2022/01/07 13:28:55;;;;;;;19.17;8.23;;;10.80;75.00;;;;;;5342981;23;20050;-96
2022/01/07 13:31:36;;;;;;;12.60;6.38;;;10.90;74.60;;;;;;4979985;28;20034;-91
2022/01/07 13:34:03;;;;;;;11.50;5.80;;;11.00;72.40;;;;;;4979129;28;20034;-92
2022/01/07 13:36:45;;;;;;;14.10;7.65;;;11.10;74.90;;;;;;4978459;28;20035;-92
2022/01/07 13:39:21;;;;;;;20.45;10.48;;;11.20;75.10;;;;;;4978492;28;20422;-92
2022/01/07 13:42:09;;;;;;;17.23;8.77;;;11.30;75.50;;;;;;4977915;28;20030;-92
2022/01/07 13:44:57;;;;;;;12.38;7.13;;;11.40;71.70;;;;;;4975818;28;20031;-92
2022/01/07 13:47:34;;;;;;;12.90;5.57;;;11.20;73.70;;;;;;4978120;28;20035;-92
2022/01/07 13:50:21;;;;;;;13.75;7.35;;;10.80;72.20;;;;;;4977858;28;20035;-92
2022/01/07 13:52:48;;;;;;;27.48;15.23;;;10.60;74.40;;;;;;4977474;28;20027;-92
2022/01/07 13:55:45;;;;;;;;;;;;;;;;;;;;;
2022/01/07 13:58:40;;;;;;;15.63;9.80;;;10.60;72.60;;;;;;4979201;28;20118;-92
2022/01/07 14:01:08;;;;;;;15.10;7.88;;;10.50;74.40;;;;;;4976731;28;20090;-92
2022/01/07 14:06:50;;;;;;;29.70;15.75;;;10.60;73.90;;;;;;4978309;28;20031;-92
2022/01/07 14:09:18;;;;;;;24.10;14.73;;;10.70;75.30;;;;;;4977849;28;20045;-91
2022/01/07 14:12:45;;;;;;;34.17;16.45;;;10.90;74.70;;;;;;4977712;28;20027;-92
2022/01/07 14:15:28;;;;;;;36.40;18.42;;;11.10;73.00;;;;;;4958225;28;20132;-92
2022/01/07 14:18:18;;;;;;;41.75;21.17;;;11.10;72.50;;;;;;4978406;28;20035;-92
2022/01/07 14:21:18;;;;;;;20.08;9.38;;;10.80;72.90;;;;;;4976721;28;20484;-93
2022/01/07 14:23:55;;;;;;;29.13;13.10;;;10.50;72.90;;;;;;4971320;28;20494;-92
2022/01/07 14:26:30;;;;;;;18.60;9.32;;;10.20;72.30;;;;;;4979571;28;20044;-92
2022/01/07 14:28:59;;;;;;;15.20;7.75;;;9.60;74.30;;;;;;4979268;28;20042;-92
2022/01/07 14:31:26;;;;;;;14.57;6.65;;;9.20;74.00;;;;;;4976749;28;20058;-93
2022/01/07 14:33:52;;;;;;;12.35;6.28;;;8.80;75.30;;;;;;4976504;28;20474;-93
2022/01/07 14:36:18;;;;;;;14.68;6.45;;;8.60;76.90;;;;;;4976168;28;20023;-92
2022/01/07 14:38:48;;;;;;;14.35;6.75;;;8.40;77.60;;;;;;4975356;28;20038;-93
2022/01/07 14:41:14;;;;;;;12.52;6.57;;;8.10;76.50;;;;;;4976576;28;20427;-93
2022/01/07 14:43:40;;;;;;;15.98;6.25;;;7.90;78.30;;;;;;4976084;28;20042;-93
2022/01/07 14:46:08;;;;;;;20.52;9.25;;;7.70;79.30;;;;;;4976116;28;20478;-93
2022/01/07 14:48:36;;;;;;;18.73;9.82;;;7.50;79.10;;;;;;4976020;28;20034;-92
2022/01/07 14:51:02;;;;;;;19.13;8.82;;;7.30;80.80;;;;;;4973860;28;20046;-92
2022/01/07 14:53:28;;;;;;;14.07;8.02;;;7.30;81.20;;;;;;4976072;28;20031;-92
2022/01/07 14:55:54;;;;;;;20.85;11.52;;;7.30;80.90;;;;;;4976597;28;20470;-93
2022/01/07 14:58:20;;;;;;;20.13;10.80;;;7.40;81.60;;;;;;4976037;28;20077;-93
2022/01/07 15:00:47;;;;;;;22.52;8.70;;;7.30;81.90;;;;;;4976358;28;20446;-93
2022/01/07 15:03:15;;;;;;;15.20;9.25;;;7.20;81.50;;;;;;4976340;28;20130;-92
2022/01/07 15:05:47;;;;;;;20.50;9.88;;;7.20;81.70;;;;;;4976108;28;20113;-93
2022/01/07 15:08:13;;;;;;;20.35;9.55;;;7.10;82.10;;;;;;4976383;28;20035;-93
2022/01/07 15:11:00;;;;;;;31.63;12.23;;;7.10;81.90;;;;;;4976365;28;20473;-93
2022/01/07 15:13:26;;;;;;;72.97;22.35;;;7.00;83.90;;;;;;4975899;28;20075;-92
2022/01/07 15:16:35;;;;;;;111.35;34.72;;;7.20;83.30;;;;;;4976090;28;20023;-93
2022/01/07 15:18:43;;;;;;;78.38;27.48;;;7.30;83.20;;;;;;4977118;28;20078;-92
2022/01/07 15:21:58;;;;;;;;;;;;;;;;;;;;;
2022/01/07 15:24:35;;;;;;;48.85;19.33;;;7.50;82.10;;;;;;4938270;29;20042;-92
2022/01/07 15:27:01;;;;;;;51.00;18.63;;;7.40;82.90;;;;;;4959216;28;20046;-92
2022/01/07 15:29:28;;;;;;;41.83;16.20;;;7.40;84.00;;;;;;4976105;28;20486;-92
2022/01/07 15:31:54;;;;;;;41.65;16.58;;;7.50;83.50;;;;;;4976881;28;20077;-92
2022/01/07 15:47:58;;;;;;;22.17;11.02;;;6.80;84.30;;;;;;4936656;29;20074;-92
2022/01/07 15:50:24;;;;;;;24.52;10.43;;;6.60;84.70;;;;;;4920836;29;20027;-92
2022/01/07 15:52:50;;;;;;;18.08;9.15;;;6.60;85.80;;;;;;4974821;28;20038;-91
2022/01/07 15:55:19;;;;;;;22.05;12.63;;;6.70;84.60;;;;;;4979387;28;20025;-91
2022/01/07 15:57:45;;;;;;;23.02;12.77;;;6.80;85.10;;;;;;4979671;28;20042;-91
2022/01/07 16:00:11;;;;;;;18.27;9.02;;;6.90;85.80;;;;;;4979468;28;20031;-91
2022/01/07 16:02:38;;;;;;;21.60;10.45;;;6.90;84.90;;;;;;4979740;28;20034;-91
2022/01/07 16:05:04;;;;;;;17.02;7.80;;;6.80;84.70;;;;;;4980109;28;20022;-91
2022/01/07 16:07:30;;;;;;;25.75;12.48;;;6.80;85.00;;;;;;4979235;28;20037;-91
2022/01/07 16:09:56;;;;;;;23.52;10.98;;;6.80;85.30;;;;;;4978073;28;20023;-91
2022/01/07 16:12:23;;;;;;;33.63;15.55;;;6.60;83.10;;;;;;4979211;28;20089;-91
2022/01/07 16:14:49;;;;;;;116.45;45.00;;;6.40;85.40;;;;;;4978988;28;20031;-91
2022/01/07 16:17:14;;;;;;;74.25;31.92;;;6.30;85.70;;;;;;4979541;28;20121;-91
2022/01/07 16:19:40;;;;;;;29.23;13.60;;;6.30;86.00;;;;;;4979311;28;20019;-91
2022/01/07 16:22:06;;;;;;;32.28;15.48;;;6.30;85.30;;;;;;4979225;28;20493;-91
2022/01/07 16:24:35;;;;;;;41.08;18.60;;;6.30;85.40;;;;;;4979113;28;20432;-91
2022/01/07 16:27:04;;;;;;;25.38;12.23;;;6.30;85.30;;;;;;4964151;28;20522;-92
2022/01/07 16:29:32;;;;;;;22.50;11.43;;;6.20;86.30;;;;;;4978867;28;20058;-91
2022/01/07 16:31:58;;;;;;;17.98;8.77;;;6.20;84.80;;;;;;4979398;28;20177;-91
2022/01/07 16:34:25;;;;;;;16.88;7.95;;;6.20;84.80;;;;;;4979275;28;20035;-91
2022/01/07 16:36:51;;;;;;;16.42;7.95;;;5.90;84.50;;;;;;4978497;28;20034;-91
2022/01/07 16:39:17;;;;;;;20.25;9.38;;;5.90;85.00;;;;;;4978759;28;20034;-91
2022/01/07 16:41:43;;;;;;;29.98;12.93;;;5.80;84.60;;;;;;4978988;28;20421;-92
2022/01/07 16:44:10;;;;;;;31.00;11.95;;;5.80;85.00;;;;;;4979239;28;20129;-91
2022/01/07 16:46:36;;;;;;;57.00;18.25;;;5.70;85.40;;;;;;4977176;28;20039;-91
2022/01/07 16:49:02;;;;;;;42.38;14.80;;;5.70;85.60;;;;;;4978821;28;20031;-91
2022/01/07 16:51:28;;;;;;;36.25;13.52;;;5.70;85.80;;;;;;4978515;28;20114;-91
2022/01/07 16:53:55;;;;;;;169.07;36.72;;;5.70;85.40;;;;;;4978459;28;20061;-91
2022/01/07 16:56:23;;;;;;;124.65;32.42;;;5.70;85.70;;;;;;4978611;28;20018;-91
2022/01/07 16:58:49;;;;;;;288.40;60.88;;;5.80;85.70;;;;;;4978030;28;20485;-91
2022/01/07 17:01:15;;;;;;;218.93;50.70;;;5.90;84.80;;;;;;4978374;28;20053;-91
2022/01/07 17:03:42;;;;;;;159.80;40.90;;;5.90;85.30;;;;;;4978730;28;20057;-91
2022/01/07 17:06:07;;;;;;;159.40;40.30;;;6.00;86.20;;;;;;4979136;28;20504;-91
2022/01/07 17:08:34;;;;;;;165.68;44.05;;;6.20;83.10;;;;;;4979033;28;20031;-91
2022/01/07 17:11:00;;;;;;;214.90;51.50;;;6.20;83.10;;;;;;4978512;28;20022;-92
2022/01/07 17:13:25;;;;;;;182.18;49.70;;;6.10;83.10;;;;;;4979121;28;20370;-91
2022/01/07 17:15:52;;;;;;;207.43;53.45;;;6.00;84.30;;;;;;4978594;28;20090;-91
2022/01/07 17:18:20;;;;;;;177.73;46.92;;;6.10;83.90;;;;;;4978914;28;20023;-91
2022/01/07 17:20:47;;;;;;;104.38;32.88;;;6.10;84.60;;;;;;4976967;28;20027;-92
2022/01/07 17:23:13;;;;;;;88.72;26.95;;;6.20;83.90;;;;;;4977955;28;20037;-91
2022/01/07 17:25:39;;;;;;;74.63;21.83;;;6.20;83.80;;;;;;4978079;28;20031;-91
2022/01/07 17:28:04;;;;;;;72.57;21.20;;;6.10;84.00;;;;;;4977665;28;20483;-92
2022/01/07 17:30:30;;;;;;;53.33;18.85;;;6.30;83.90;;;;;;4977643;28;20054;-91
2022/01/07 17:32:57;;;;;;;60.00;18.27;;;6.30;83.40;;;;;;4978839;28;20469;-91
2022/01/07 17:35:23;;;;;;;45.78;16.42;;;6.20;83.40;;;;;;4978850;28;20037;-91
2022/01/07 17:37:50;;;;;;;37.97;14.35;;;6.20;84.70;;;;;;4977513;28;20033;-91
2022/01/07 17:40:17;;;;;;;34.42;14.07;;;6.20;82.90;;;;;;4978506;28;20385;-91
2022/01/07 17:42:43;;;;;;;30.63;12.35;;;6.10;84.50;;;;;;4978766;28;20428;-89
2022/01/07 17:45:12;;;;;;;31.80;12.90;;;6.20;84.30;;;;;;4978092;28;20035;-91
2022/01/07 17:47:37;;;;;;;27.17;10.82;;;6.20;84.20;;;;;;4978147;28;20082;-91
2022/01/07 17:50:04;;;;;;;22.35;9.10;;;6.20;83.30;;;;;;4977810;28;20007;-92
2022/01/07 17:52:30;;;;;;;22.42;9.50;;;6.30;84.30;;;;;;4977531;28;20023;-91
2022/01/07 17:54:56;;;;;;;22.08;9.60;;;6.30;81.10;;;;;;4976457;28;20025;-91
2022/01/07 17:57:30;;;;;;;19.10;7.68;;;6.20;83.00;;;;;;4977321;28;20089;-91
2022/01/07 17:59:56;;;;;;;22.67;9.75;;;6.20;83.50;;;;;;4977385;28;20071;-91
2022/01/07 18:02:21;;;;;;;22.52;9.43;;;6.20;81.00;;;;;;4977250;28;20030;-91
2022/01/07 18:04:51;;;;;;;20.52;8.60;;;6.10;82.90;;;;;;4977040;28;20364;-91
2022/01/07 18:07:17;;;;;;;27.50;10.45;;;6.00;84.50;;;;;;4976719;28;20027;-91
2022/01/07 18:09:43;;;;;;;24.88;10.55;;;6.00;83.70;;;;;;4976612;28;20577;-92
2022/01/07 18:12:09;;;;;;;30.55;13.07;;;6.10;82.90;;;;;;4977250;28;20034;-91
2022/01/07 18:14:38;;;;;;;30.75;12.38;;;6.00;83.60;;;;;;4976662;28;20023;-92
2022/01/07 18:17:07;;;;;;;35.03;15.13;;;6.00;83.50;;;;;;4976479;28;20470;-92
2022/01/07 18:19:33;;;;;;;40.72;16.77;;;6.10;84.90;;;;;;4976837;28;20027;-91
2022/01/07 18:22:05;;;;;;;40.90;18.63;;;6.20;84.00;;;;;;4976865;28;20085;-91
2022/01/07 18:24:31;;;;;;;45.17;18.98;;;6.20;83.90;;;;;;4977051;28;20031;-91
2022/01/07 18:26:59;;;;;;;48.55;22.42;;;6.20;84.30;;;;;;4977290;28;20392;-91
2022/01/07 18:29:25;;;;;;;48.33;20.02;;;6.10;84.50;;;;;;4976281;28;20098;-91
2022/01/07 18:31:54;;;;;;;49.85;20.27;;;6.20;84.90;;;;;;4976775;28;20085;-91
2022/01/07 18:34:20;;;;;;;42.72;18.20;;;6.20;83.80;;;;;;4975772;28;20043;-91
2022/01/07 18:36:46;;;;;;;43.13;17.60;;;6.10;84.70;;;;;;4976790;28;20034;-91
2022/01/07 18:39:11;;;;;;;44.10;18.88;;;6.10;83.50;;;;;;4976488;28;20019;-91
2022/01/07 18:41:37;;;;;;;39.35;17.45;;;6.10;84.90;;;;;;4976218;28;20019;-91
2022/01/07 18:44:07;;;;;;;41.95;22.00;;;6.10;83.70;;;;;;4976390;28;20102;-91
2022/01/07 18:46:33;;;;;;;72.90;29.92;;;6.00;84.30;;;;;;4976876;28;20529;-91
2022/01/07 18:48:59;;;;;;;71.28;30.10;;;6.00;85.20;;;;;;4976219;28;20030;-91
2022/01/07 18:51:27;;;;;;;158.98;53.58;;;6.00;84.50;;;;;;4977125;28;20085;-92
2022/01/07 18:53:53;;;;;;;82.10;33.17;;;6.00;84.30;;;;;;4977170;28;20026;-92
2022/01/07 18:56:18;;;;;;;56.53;25.35;;;6.00;84.70;;;;;;4976857;28;20057;-91
2022/01/07 18:58:44;;;;;;;54.20;23.52;;;6.00;83.10;;;;;;4976340;28;20034;-91
2022/01/07 19:01:10;;;;;;;39.95;17.50;;;6.00;84.20;;;;;;4976366;28;20057;-91
2022/01/07 19:03:37;;;;;;;46.78;19.42;;;6.00;84.20;;;;;;4976030;28;20023;-92
2022/01/07 19:06:03;;;;;;;45.25;17.52;;;6.00;85.60;;;;;;4976161;28;20078;-91
2022/01/07 19:08:29;;;;;;;48.38;20.73;;;6.10;84.80;;;;;;4976411;28;20031;-91
2022/01/07 19:10:55;;;;;;;65.15;29.42;;;6.10;86.20;;;;;;4976416;28;20018;-91
2022/01/07 19:13:21;;;;;;;58.85;26.15;;;6.20;84.40;;;;;;4976147;28;20493;-90
2022/01/07 19:15:47;;;;;;;69.47;30.75;;;6.20;85.30;;;;;;4976849;28;20078;-92
2022/01/07 19:18:18;;;;;;;81.22;35.13;;;6.10;84.70;;;;;;4975465;28;20035;-91
2022/01/07 19:20:44;;;;;;;80.80;34.33;;;6.10;86.10;;;;;;4976119;28;20119;-91
2022/01/07 19:23:10;;;;;;;85.88;33.97;;;6.00;85.50;;;;;;4976124;28;20090;-91
2022/01/07 19:25:36;;;;;;;79.57;32.15;;;6.10;85.80;;;;;;4976911;28;20063;-91
2022/01/07 19:28:02;;;;;;;70.97;28.88;;;6.10;85.10;;;;;;4976287;28;20069;-91
2022/01/07 19:30:28;;;;;;;68.13;27.67;;;6.10;85.50;;;;;;4978992;28;20047;-91
2022/01/07 19:32:53;;;;;;;66.75;25.50;;;6.00;85.70;;;;;;4979988;28;20023;-91
2022/01/07 19:35:19;;;;;;;56.92;24.88;;;6.00;85.10;;;;;;4979862;28;20178;-92
2022/01/07 19:37:45;;;;;;;64.53;26.20;;;6.00;85.70;;;;;;4979973;28;20030;-91
2022/01/07 19:40:12;;;;;;;70.55;26.50;;;6.00;86.10;;;;;;4979131;28;20035;-91
2022/01/07 19:42:37;;;;;;;57.45;23.88;;;5.90;85.30;;;;;;4979503;28;20027;-91
2022/01/07 19:45:04;;;;;;;58.95;24.17;;;5.90;86.40;;;;;;4978727;28;20038;-90
2022/01/07 19:47:30;;;;;;;61.20;25.48;;;5.90;86.80;;;;;;4980428;28;20031;-91
2022/01/07 19:49:56;;;;;;;75.80;29.30;;;5.90;86.70;;;;;;4979779;28;20030;-91
2022/01/07 19:52:22;;;;;;;69.88;27.45;;;6.00;86.20;;;;;;4979919;28;20093;-91
2022/01/07 19:54:49;;;;;;;66.63;26.65;;;5.90;86.70;;;;;;4979919;28;20030;-91
2022/01/07 19:57:15;;;;;;;73.28;28.15;;;5.90;86.40;;;;;;4979495;28;20026;-92
2022/01/07 19:59:41;;;;;;;69.07;29.88;;;5.80;87.10;;;;;;4979899;28;20532;-91
2022/01/07 20:02:08;;;;;;;81.80;34.25;;;5.90;87.50;;;;;;4979218;28;20396;-91
2022/01/07 20:04:36;;;;;;;113.38;41.22;;;5.80;87.10;;;;;;4979361;28;20500;-92
2022/01/07 20:07:08;;;;;;;127.85;45.08;;;5.70;87.40;;;;;;4979206;28;20105;-91
2022/01/07 20:09:35;;;;;;;139.00;46.97;;;5.60;87.20;;;;;;4979336;28;20027;-91
2022/01/07 20:12:01;;;;;;;127.60;46.15;;;5.60;88.00;;;;;;4979927;28;20047;-91
2022/01/07 20:14:27;;;;;;;104.80;37.42;;;5.60;88.00;;;;;;4979087;28;20003;-91
2022/01/07 20:16:53;;;;;;;116.20;42.47;;;5.50;87.90;;;;;;4978763;28;20019;-92
2022/01/07 20:19:19;;;;;;;159.10;57.95;;;5.50;89.60;;;;;;4978010;28;20023;-91
2022/01/07 20:21:45;;;;;;;143.57;56.90;;;5.40;90.00;;;;;;4979231;28;20063;-92
2022/01/07 20:24:17;;;;;;;169.60;60.85;;;5.30;90.10;;;;;;4979179;28;20381;-92
2022/01/07 20:26:43;;;;;;;341.58;119.57;;;5.20;90.50;;;;;;4978697;28;20045;-91
2022/01/07 20:29:09;;;;;;;344.38;120.88;;;5.10;90.60;;;;;;4978778;28;20054;-92
2022/01/07 20:31:35;;;;;;;320.20;111.63;;;5.20;90.60;;;;;;4978666;28;20404;-91
2022/01/07 20:34:01;;;;;;;278.92;97.97;;;5.20;90.60;;;;;;4978983;28;20035;-91
2022/01/07 20:36:27;;;;;;;232.80;81.15;;;5.30;90.80;;;;;;4978640;28;20474;-92
2022/01/07 20:38:52;;;;;;;185.27;67.28;;;5.40;90.30;;;;;;4979170;28;20397;-92
2022/01/07 20:41:18;;;;;;;139.52;50.88;;;5.40;89.60;;;;;;4978222;28;20031;-92
2022/01/07 20:43:53;;;;;;;144.50;52.00;;;5.40;90.10;;;;;;4979081;28;20042;-92
2022/01/07 20:46:23;;;;;;;191.02;58.40;;;5.30;90.00;;;;;;4979609;28;20458;-91
2022/01/07 20:48:49;;;;;;;373.95;85.22;;;5.30;90.40;;;;;;4978402;28;20463;-92
2022/01/07 20:51:26;;;;;;;319.98;75.25;;;5.30;90.10;;;;;;4978245;28;20043;-92
2022/01/07 20:53:58;;;;;;;175.60;44.75;;;5.20;90.80;;;;;;4977749;28;20043;-92
2022/01/07 20:56:25;;;;;;;149.38;40.17;;;5.20;90.50;;;;;;4979200;28;20014;-92
2022/01/07 20:58:56;;;;;;;113.55;35.88;;;5.30;90.30;;;;;;4978718;28;20537;-92
2022/01/07 21:01:33;;;;;;;115.05;37.40;;;5.30;90.30;;;;;;4977698;28;20037;-92
2022/01/07 21:03:58;;;;;;;125.18;42.92;;;5.30;90.40;;;;;;4977814;28;20052;-91
2022/01/07 21:06:24;;;;;;;108.60;40.90;;;5.30;90.20;;;;;;4977826;28;20054;-92
2022/01/07 21:08:53;;;;;;;141.48;48.47;;;5.30;90.30;;;;;;4977913;28;20478;-92
2022/01/07 21:11:19;;;;;;;187.70;64.72;;;5.30;90.80;;;;;;4978804;28;20378;-91
2022/01/07 21:13:48;;;;;;;197.95;67.60;;;5.40;91.00;;;;;;4978792;28;20030;-91
2022/01/07 21:16:33;;;;;;;213.35;71.30;;;5.40;90.80;;;;;;4978376;28;20047;-91
2022/01/07 21:21:55;;;;;;;149.10;55.53;;;5.30;91.20;;;;;;4979550;28;20062;-92
2022/01/07 21:24:24;;;;;;;;;;;5.30;91.20;;;;;;4978444;28;20031;-91
2022/01/07 21:26:50;;;;;;;135.45;51.35;;;5.30;91.50;;;;;;4978528;28;20342;-91
2022/01/07 21:29:16;;;;;;;151.30;53.78;;;5.30;91.20;;;;;;4977631;28;20510;-91
2022/01/07 21:31:51;;;;;;;137.30;52.03;;;5.40;91.20;;;;;;4978627;28;20054;-91
2022/01/07 21:34:17;;;;;;;135.85;47.60;;;5.40;91.00;;;;;;4977582;28;20118;-90
2022/01/07 21:36:43;;;;;;;154.52;52.75;;;5.40;91.00;;;;;;4977724;28;20061;-92
2022/01/07 21:39:10;;;;;;;128.52;48.78;;;5.50;91.30;;;;;;4977544;28;20485;-91
2022/01/07 21:41:36;;;;;;;121.07;46.33;;;5.50;91.30;;;;;;4977829;28;20445;-91
2022/01/07 21:44:03;;;;;;;116.07;43.05;;;5.50;91.20;;;;;;4977565;28;20077;-91
2022/01/07 21:46:29;;;;;;;113.10;44.95;;;5.50;91.70;;;;;;4978452;28;20030;-91
2022/01/07 21:48:55;;;;;;;100.47;39.70;;;5.60;91.30;;;;;;4977724;28;20079;-91
2022/01/07 21:51:21;;;;;;;98.43;40.63;;;5.60;91.00;;;;;;4977269;28;20023;-91
2022/01/07 21:53:47;;;;;;;113.72;45.20;;;5.60;90.70;;;;;;4976839;28;20050;-91
2022/01/07 21:56:13;;;;;;;125.10;48.45;;;5.50;90.70;;;;;;4977803;28;20074;-91
2022/01/07 21:58:40;;;;;;;150.95;54.38;;;5.50;90.90;;;;;;4978588;28;20023;-91
2022/01/07 22:01:06;;;;;;;160.52;56.53;;;5.40;90.90;;;;;;4978335;28;20038;-91
2022/01/07 22:03:32;;;;;;;162.30;58.47;;;5.40;91.20;;;;;;4977364;28;20041;-91
2022/01/07 22:05:58;;;;;;;196.27;71.40;;;5.30;91.30;;;;;;4978228;28;20114;-90
2022/01/07 22:08:24;;;;;;;185.45;68.28;;;5.30;91.20;;;;;;4977865;28;20133;-91
2022/01/07 22:10:50;;;;;;;157.35;60.45;;;5.30;91.10;;;;;;4977657;28;20026;-91
2022/01/07 22:13:15;;;;;;;152.48;57.25;;;5.20;91.20;;;;;;4978010;28;20113;-91
2022/01/07 22:15:41;;;;;;;140.57;56.10;;;5.20;91.40;;;;;;4977415;28;20050;-92
2022/01/07 22:18:08;;;;;;;149.00;58.25;;;5.20;91.60;;;;;;4978059;28;20023;-91
2022/01/07 22:20:34;;;;;;;159.30;58.65;;;5.20;91.40;;;;;;4977944;28;20027;-91
2022/01/07 22:23:01;;;;;;;142.68;56.03;;;5.20;90.70;;;;;;4977675;28;20019;-91
2022/01/07 22:25:27;;;;;;;136.88;51.92;;;5.20;91.20;;;;;;4978232;28;20026;-90
2022/01/07 22:27:53;;;;;;;122.88;48.30;;;5.20;91.20;;;;;;4976755;28;20026;-91
2022/01/07 22:30:22;;;;;;;126.20;46.67;;;5.20;91.30;;;;;;4974653;28;20038;-91
2022/01/07 22:32:47;;;;;;;105.47;44.10;;;5.20;91.40;;;;;;4976783;28;20030;-91
2022/01/07 22:35:14;;;;;;;117.03;46.20;;;5.30;91.60;;;;;;4976857;28;20121;-91
2022/01/07 22:37:41;;;;;;;109.50;42.22;;;5.30;91.00;;;;;;4976717;28;20492;-92
2022/01/07 22:40:08;;;;;;;107.35;41.53;;;5.30;91.40;;;;;;4976309;28;20480;-91
2022/01/07 22:42:34;;;;;;;121.45;46.92;;;5.30;91.30;;;;;;4976801;28;20018;-91
2022/01/07 22:45:00;;;;;;;118.28;46.75;;;5.40;91.40;;;;;;4976659;28;20025;-91
2022/01/07 22:47:37;;;;;;;132.77;49.80;;;5.40;91.50;;;;;;4976024;28;20398;-91
2022/01/07 22:50:05;;;;;;;124.57;45.10;;;5.50;91.80;;;;;;4976537;28;20022;-91
2022/01/07 22:52:31;;;;;;;139.27;51.63;;;5.50;91.80;;;;;;4976023;28;20509;-91
2022/01/07 22:54:58;;;;;;;131.48;49.88;;;5.60;91.60;;;;;;4976285;28;20058;-91
2022/01/07 22:57:24;;;;;;;144.00;53.15;;;5.50;91.50;;;;;;4977150;28;20500;-91
2022/01/07 22:59:50;;;;;;;133.07;51.42;;;5.50;92.00;;;;;;4977182;28;20113;-91
2022/01/07 23:02:22;;;;;;;137.52;52.13;;;5.50;91.80;;;;;;4976468;28;20386;-91
2022/01/07 23:04:47;;;;;;;138.48;51.45;;;5.40;91.80;;;;;;4976354;28;20019;-91
2022/01/07 23:07:16;;;;;;;138.70;53.63;;;5.50;92.00;;;;;;4975154;28;20122;-91
2022/01/07 23:09:42;;;;;;;121.38;47.00;;;5.50;91.90;;;;;;4976891;28;20031;-91
2022/01/07 23:12:08;;;;;;;126.50;46.58;;;5.50;92.20;;;;;;4976190;28;20027;-91
2022/01/07 23:14:40;;;;;;;113.50;44.72;;;5.50;92.30;;;;;;4976291;28;20046;-91
2022/01/07 23:17:14;;;;;;;103.22;42.47;;;5.40;92.70;;;;;;4977189;28;20026;-91
2022/01/07 23:19:45;;;;;;;90.22;37.58;;;5.50;92.10;;;;;;4976603;28;20034;-91
2022/01/07 23:22:15;;;;;;;93.75;37.25;;;5.50;92.40;;;;;;4975132;28;20035;-92
2022/01/07 23:24:43;;;;;;;124.38;45.25;;;5.40;92.00;;;;;;4975922;28;20034;-91
2022/01/07 23:27:15;;;;;;;116.70;46.78;;;5.50;92.70;;;;;;4975868;28;20441;-91
2022/01/07 23:29:41;;;;;;;110.50;44.42;;;5.50;92.40;;;;;;4976504;28;20047;-91
2022/01/07 23:32:10;;;;;;;125.20;45.35;;;5.50;92.60;;;;;;4975993;28;20038;-91
2022/01/07 23:34:38;;;;;;;147.82;50.20;;;5.60;92.60;;;;;;4975777;28;20569;-91
2022/01/07 23:37:10;;;;;;;155.02;50.40;;;5.60;92.40;;;;;;4976560;28;20598;-91
2022/01/07 23:39:45;;;;;;;150.90;54.38;;;5.60;91.80;;;;;;4975652;28;20057;-91
2022/01/07 23:42:14;;;;;;;177.45;60.00;;;5.40;92.80;;;;;;4973630;28;20035;-91
2022/01/07 23:44:46;;;;;;;153.00;54.10;;;5.40;92.40;;;;;;4975720;28;20035;-91
2022/01/07 23:47:12;;;;;;;146.80;54.47;;;5.40;92.60;;;;;;4975976;28;20390;-91
2022/01/07 23:49:38;;;;;;;145.65;53.95;;;5.40;92.50;;;;;;4976156;28;20011;-92
2022/01/07 23:52:04;;;;;;;153.93;56.92;;;5.40;92.70;;;;;;4976242;28;20031;-92
2022/01/07 23:54:33;;;;;;;155.30;59.83;;;5.40;92.50;;;;;;4974769;28;20463;-91
2022/01/07 23:56:59;;;;;;;151.50;57.20;;;5.30;92.20;;;;;;4975437;28;20035;-91
2022/01/07 23:59:25;;;;;;;156.02;55.90;;;5.30;92.20;;;;;;4976531;28;20074;-90
